sensor_id;sensor_type;location;lat;lon;timestamp;temperature;humidity
39655;DHT22;25336;59.944;11.010;2024-01-16T00:01:15;-14.90;59.10
39655;DHT22;25336;59.944;11.010;2024-01-16T00:03:41;-14.90;58.90
39655;DHT22;25336;59.944;11.010;2024-01-16T00:06:07;-13.80;59.20
39655;DHT22;25336;59.944;11.010;2024-01-16T00:08:33;-15.10;58.30
39655;DHT22;25336;59.944;11.010;2024-01-16T00:10:59;-15.80;57.90
39655;DHT22;25336;59.944;11.010;2024-01-16T00:13:26;-15.30;58.10
39655;DHT22;25336;59.944;11.010;2024-01-16T00:15:52;-15.30;58.20
39655;DHT22;25336;59.944;11.010;2024-01-16T00:18:18;-15.40;58.20
39655;DHT22;25336;59.944;11.010;2024-01-16T00:20:44;-15.40;59.10
39655;DHT22;25336;59.944;11.010;2024-01-16T00:23:10;-15.40;58.80
39655;DHT22;25336;59.944;11.010;2024-01-16T00:25:35;-15.40;59.00
39655;DHT22;25336;59.944;11.010;2024-01-16T00:28:02;-15.40;59.20
39655;DHT22;25336;59.944;11.010;2024-01-16T00:30:29;-15.40;59.40
39655;DHT22;25336;59.944;11.010;2024-01-16T00:32:55;-15.30;59.60
39655;DHT22;25336;59.944;11.010;2024-01-16T00:35:20;-15.30;59.60
39655;DHT22;25336;59.944;11.010;2024-01-16T00:37:46;-15.30;59.70
39655;DHT22;25336;59.944;11.010;2024-01-16T00:40:12;-15.30;59.80
39655;DHT22;25336;59.944;11.010;2024-01-16T00:42:38;-15.30;59.80
39655;DHT22;25336;59.944;11.010;2024-01-16T00:45:04;-15.20;59.90
39655;DHT22;25336;59.944;11.010;2024-01-16T00:47:30;-15.20;60.60
39655;DHT22;25336;59.944;11.010;2024-01-16T00:49:55;-15.30;59.70
39655;DHT22;25336;59.944;11.010;2024-01-16T00:52:21;-15.30;59.50
39655;DHT22;25336;59.944;11.010;2024-01-16T00:54:47;-15.30;59.20
39655;DHT22;25336;59.944;11.010;2024-01-16T00:57:13;-15.40;58.90
39655;DHT22;25336;59.944;11.010;2024-01-16T00:59:40;-15.40;58.80
39655;DHT22;25336;59.944;11.010;2024-01-16T01:02:06;-15.50;58.70
39655;DHT22;25336;59.944;11.010;2024-01-16T01:04:35;-15.50;58.80
39655;DHT22;25336;59.944;11.010;2024-01-16T01:07:00;-15.50;58.90
39655;DHT22;25336;59.944;11.010;2024-01-16T01:09:26;-15.50;59.10
39655;DHT22;25336;59.944;11.010;2024-01-16T01:11:52;-15.40;59.30
39655;DHT22;25336;59.944;11.010;2024-01-16T01:14:17;-15.50;59.30
39655;DHT22;25336;59.944;11.010;2024-01-16T01:16:43;-15.50;59.30
39655;DHT22;25336;59.944;11.010;2024-01-16T01:19:09;-15.40;59.40
39655;DHT22;25336;59.944;11.010;2024-01-16T01:21:35;-15.50;59.50
39655;DHT22;25336;59.944;11.010;2024-01-16T01:24:01;-15.40;59.50
39655;DHT22;25336;59.944;11.010;2024-01-16T01:26:27;-15.40;59.50
39655;DHT22;25336;59.944;11.010;2024-01-16T01:28:52;-15.40;59.40
39655;DHT22;25336;59.944;11.010;2024-01-16T01:31:18;-15.40;59.40
39655;DHT22;25336;59.944;11.010;2024-01-16T01:33:44;-15.50;59.30
39655;DHT22;25336;59.944;11.010;2024-01-16T01:36:10;-15.50;59.20
39655;DHT22;25336;59.944;11.010;2024-01-16T01:38:35;-14.20;59.70
39655;DHT22;25336;59.944;11.010;2024-01-16T01:41:01;-15.50;58.90
39655;DHT22;25336;59.944;11.010;2024-01-16T01:43:27;-15.60;58.70
39655;DHT22;25336;59.944;11.010;2024-01-16T01:48:37;-15.70;58.50
39655;DHT22;25336;59.944;11.010;2024-01-16T01:51:04;-15.70;58.30
39655;DHT22;25336;59.944;11.010;2024-01-16T01:53:31;-15.80;58.10
39655;DHT22;25336;59.944;11.010;2024-01-16T01:55:57;-15.90;57.90
39655;DHT22;25336;59.944;11.010;2024-01-16T01:58:24;-15.90;57.90
39655;DHT22;25336;59.944;11.010;2024-01-16T02:00:50;-16.00;57.80
39655;DHT22;25336;59.944;11.010;2024-01-16T02:03:17;-16.00;58.00
39655;DHT22;25336;59.944;11.010;2024-01-16T02:05:44;-16.00;58.10
39655;DHT22;25336;59.944;11.010;2024-01-16T02:08:10;-16.00;58.10
39655;DHT22;25336;59.944;11.010;2024-01-16T02:10:37;-16.10;58.10
39655;DHT22;25336;59.944;11.010;2024-01-16T02:13:04;-16.10;58.00
39655;DHT22;25336;59.944;11.010;2024-01-16T02:15:31;-16.10;58.00
39655;DHT22;25336;59.944;11.010;2024-01-16T02:17:57;-16.20;58.00
39655;DHT22;25336;59.944;11.010;2024-01-16T02:20:23;-16.20;58.00
39655;DHT22;25336;59.944;11.010;2024-01-16T02:22:52;-16.20;58.00
39655;DHT22;25336;59.944;11.010;2024-01-16T02:25:19;-16.20;58.10
39655;DHT22;25336;59.944;11.010;2024-01-16T02:27:46;-16.20;58.20
39655;DHT22;25336;59.944;11.010;2024-01-16T02:30:11;-16.20;58.20
39655;DHT22;25336;59.944;11.010;2024-01-16T02:32:37;-16.20;58.40
39655;DHT22;25336;59.944;11.010;2024-01-16T02:35:04;-16.20;58.30
39655;DHT22;25336;59.944;11.010;2024-01-16T02:37:30;-16.20;58.30
39655;DHT22;25336;59.944;11.010;2024-01-16T02:39:56;-16.20;58.40
39655;DHT22;25336;59.944;11.010;2024-01-16T02:42:21;-16.20;58.50
39655;DHT22;25336;59.944;11.010;2024-01-16T02:44:47;-15.20;58.90
39655;DHT22;25336;59.944;11.010;2024-01-16T02:47:13;-16.20;58.40
39655;DHT22;25336;59.944;11.010;2024-01-16T02:49:38;-16.30;58.30
39655;DHT22;25336;59.944;11.010;2024-01-16T02:52:05;-16.30;58.20
39655;DHT22;25336;59.944;11.010;2024-01-16T02:54:31;-16.30;58.10
39655;DHT22;25336;59.944;11.010;2024-01-16T02:56:56;-16.30;58.10
39655;DHT22;25336;59.944;11.010;2024-01-16T02:59:22;-16.30;58.10
39655;DHT22;25336;59.944;11.010;2024-01-16T03:01:48;-16.30;58.30
39655;DHT22;25336;59.944;11.010;2024-01-16T03:04:13;-16.30;58.30
39655;DHT22;25336;59.944;11.010;2024-01-16T03:06:40;-16.30;58.40
39655;DHT22;25336;59.944;11.010;2024-01-16T03:09:05;-15.20;58.90
39655;DHT22;25336;59.944;11.010;2024-01-16T03:11:32;-16.30;58.50
39655;DHT22;25336;59.944;11.010;2024-01-16T03:13:58;-16.30;58.50
39655;DHT22;25336;59.944;11.010;2024-01-16T03:16:25;-15.10;59.10
39655;DHT22;25336;59.944;11.010;2024-01-16T03:18:51;-16.30;58.60
39655;DHT22;25336;59.944;11.010;2024-01-16T03:21:16;-16.30;58.60
39655;DHT22;25336;59.944;11.010;2024-01-16T03:23:43;-15.50;59.10
39655;DHT22;25336;59.944;11.010;2024-01-16T03:26:15;-16.30;58.70
39655;DHT22;25336;59.944;11.010;2024-01-16T03:28:41;-16.30;58.80
39655;DHT22;25336;59.944;11.010;2024-01-16T03:31:07;-16.30;58.90
39655;DHT22;25336;59.944;11.010;2024-01-16T03:33:33;-16.30;58.90
39655;DHT22;25336;59.944;11.010;2024-01-16T03:36:00;-16.20;59.00
39655;DHT22;25336;59.944;11.010;2024-01-16T03:38:26;-16.20;59.00
39655;DHT22;25336;59.944;11.010;2024-01-16T03:40:52;-16.30;59.00
39655;DHT22;25336;59.944;11.010;2024-01-16T03:43:18;-16.20;59.00
39655;DHT22;25336;59.944;11.010;2024-01-16T03:45:44;-16.20;59.00
39655;DHT22;25336;59.944;11.010;2024-01-16T03:48:10;-16.20;59.00
39655;DHT22;25336;59.944;11.010;2024-01-16T03:50:35;-16.30;58.90
39655;DHT22;25336;59.944;11.010;2024-01-16T03:53:02;-16.30;58.70
39655;DHT22;25336;59.944;11.010;2024-01-16T03:55:29;-16.40;58.60
39655;DHT22;25336;59.944;11.010;2024-01-16T03:57:56;-15.30;59.00
39655;DHT22;25336;59.944;11.010;2024-01-16T04:00:22;-16.50;58.30
39655;DHT22;25336;59.944;11.010;2024-01-16T04:02:48;-16.60;58.20
39655;DHT22;25336;59.944;11.010;2024-01-16T04:05:13;-16.60;58.20
39655;DHT22;25336;59.944;11.010;2024-01-16T04:07:39;-16.70;58.20
39655;DHT22;25336;59.944;11.010;2024-01-16T04:10:06;-16.70;58.20
39655;DHT22;25336;59.944;11.010;2024-01-16T04:12:32;-16.80;58.20
39655;DHT22;25336;59.944;11.010;2024-01-16T04:14:58;-16.80;58.20
39655;DHT22;25336;59.944;11.010;2024-01-16T04:17:23;-16.80;58.30
39655;DHT22;25336;59.944;11.010;2024-01-16T04:19:49;-16.90;58.20
39655;DHT22;25336;59.944;11.010;2024-01-16T04:22:15;-16.80;58.30
39655;DHT22;25336;59.944;11.010;2024-01-16T04:24:40;-16.90;58.20
39655;DHT22;25336;59.944;11.010;2024-01-16T04:27:06;-16.90;58.20
39655;DHT22;25336;59.944;11.010;2024-01-16T04:29:32;-16.90;58.20
39655;DHT22;25336;59.944;11.010;2024-01-16T04:31:58;-17.00;58.20
39655;DHT22;25336;59.944;11.010;2024-01-16T04:34:24;-17.00;58.10
39655;DHT22;25336;59.944;11.010;2024-01-16T04:36:49;-17.00;58.20
39655;DHT22;25336;59.944;11.010;2024-01-16T04:39:15;-17.00;58.20
39655;DHT22;25336;59.944;11.010;2024-01-16T04:41:41;-17.00;58.20
39655;DHT22;25336;59.944;11.010;2024-01-16T04:44:06;-17.00;58.10
39655;DHT22;25336;59.944;11.010;2024-01-16T04:46:32;-17.00;58.10
39655;DHT22;25336;59.944;11.010;2024-01-16T04:48:58;-17.00;58.20
39655;DHT22;25336;59.944;11.010;2024-01-16T04:51:24;-17.00;58.20
39655;DHT22;25336;59.944;11.010;2024-01-16T04:53:49;-17.00;58.30
39655;DHT22;25336;59.944;11.010;2024-01-16T04:56:15;-17.00;58.20
39655;DHT22;25336;59.944;11.010;2024-01-16T04:58:41;-17.10;58.10
39655;DHT22;25336;59.944;11.010;2024-01-16T05:01:06;-17.10;58.00
39655;DHT22;25336;59.944;11.010;2024-01-16T05:03:33;-17.20;57.80
39655;DHT22;25336;59.944;11.010;2024-01-16T05:05:59;-17.20;57.70
39655;DHT22;25336;59.944;11.010;2024-01-16T05:08:24;-17.20;57.70
39655;DHT22;25336;59.944;11.010;2024-01-16T05:10:50;-17.20;57.70
39655;DHT22;25336;59.944;11.010;2024-01-16T05:13:16;-17.30;57.70
39655;DHT22;25336;59.944;11.010;2024-01-16T05:15:41;-17.30;57.80
39655;DHT22;25336;59.944;11.010;2024-01-16T05:18:07;-16.70;58.10
39655;DHT22;25336;59.944;11.010;2024-01-16T05:20:33;-17.30;57.90
39655;DHT22;25336;59.944;11.010;2024-01-16T05:22:58;-17.30;57.90
39655;DHT22;25336;59.944;11.010;2024-01-16T05:25:24;-17.30;57.90
39655;DHT22;25336;59.944;11.010;2024-01-16T05:27:50;-17.30;57.90
39655;DHT22;25336;59.944;11.010;2024-01-16T05:30:16;-17.30;57.90
39655;DHT22;25336;59.944;11.010;2024-01-16T05:32:41;-17.30;57.90
39655;DHT22;25336;59.944;11.010;2024-01-16T05:35:07;-17.30;58.00
39655;DHT22;25336;59.944;11.010;2024-01-16T05:37:35;-17.30;58.10
39655;DHT22;25336;59.944;11.010;2024-01-16T05:40:01;-17.30;58.20
39655;DHT22;25336;59.944;11.010;2024-01-16T05:42:29;-17.30;58.30
39655;DHT22;25336;59.944;11.010;2024-01-16T05:44:55;-17.30;58.30
39655;DHT22;25336;59.944;11.010;2024-01-16T05:47:20;-17.30;58.30
39655;DHT22;25336;59.944;11.010;2024-01-16T05:49:49;-17.30;58.30
39655;DHT22;25336;59.944;11.010;2024-01-16T05:52:15;-17.30;58.30
39655;DHT22;25336;59.944;11.010;2024-01-16T05:54:41;-17.30;58.30
39655;DHT22;25336;59.944;11.010;2024-01-16T05:57:06;-17.30;58.30
39655;DHT22;25336;59.944;11.010;2024-01-16T05:59:32;-17.30;58.20
39655;DHT22;25336;59.944;11.010;2024-01-16T06:01:58;-17.30;58.20
39655;DHT22;25336;59.944;11.010;2024-01-16T06:04:24;-17.30;58.20
39655;DHT22;25336;59.944;11.010;2024-01-16T06:06:49;-16.40;58.60
39655;DHT22;25336;59.944;11.010;2024-01-16T06:09:15;-17.30;58.20
39655;DHT22;25336;59.944;11.010;2024-01-16T06:11:41;-16.20;58.70
39655;DHT22;25336;59.944;11.010;2024-01-16T06:14:07;-17.30;58.10
39655;DHT22;25336;59.944;11.010;2024-01-16T06:16:33;-17.30;58.10
39655;DHT22;25336;59.944;11.010;2024-01-16T06:18:58;-16.40;58.60
39655;DHT22;25336;59.944;11.010;2024-01-16T06:21:24;-17.30;58.70
39655;DHT22;25336;59.944;11.010;2024-01-16T06:23:50;-17.30;58.10
39655;DHT22;25336;59.944;11.010;2024-01-16T06:26:16;-17.30;58.10
39655;DHT22;25336;59.944;11.010;2024-01-16T06:28:41;-15.90;58.70
39655;DHT22;25336;59.944;11.010;2024-01-16T06:31:08;-17.30;58.10
39655;DHT22;25336;59.944;11.010;2024-01-16T06:33:35;-17.40;58.00
39655;DHT22;25336;59.944;11.010;2024-01-16T06:36:04;-17.40;58.00
39655;DHT22;25336;59.944;11.010;2024-01-16T06:38:31;-17.40;58.00
39655;DHT22;25336;59.944;11.010;2024-01-16T06:40:57;-17.40;57.90
39655;DHT22;25336;59.944;11.010;2024-01-16T06:43:23;-17.30;58.00
39655;DHT22;25336;59.944;11.010;2024-01-16T06:45:49;-17.30;58.10
39655;DHT22;25336;59.944;11.010;2024-01-16T06:48:15;-17.30;58.10
39655;DHT22;25336;59.944;11.010;2024-01-16T06:50:41;-17.30;58.20
39655;DHT22;25336;59.944;11.010;2024-01-16T06:53:07;-17.20;58.30
39655;DHT22;25336;59.944;11.010;2024-01-16T06:55:33;-17.20;58.40
39655;DHT22;25336;59.944;11.010;2024-01-16T06:57:59;-17.10;58.60
39655;DHT22;25336;59.944;11.010;2024-01-16T07:00:24;-17.10;58.60
39655;DHT22;25336;59.944;11.010;2024-01-16T07:02:55;-17.00;58.70
39655;DHT22;25336;59.944;11.010;2024-01-16T07:05:21;-16.90;58.80
39655;DHT22;25336;59.944;11.010;2024-01-16T07:07:47;-16.90;58.90
39655;DHT22;25336;59.944;11.010;2024-01-16T07:10:13;-16.80;59.00
39655;DHT22;25336;59.944;11.010;2024-01-16T07:12:45;-16.80;59.00
39655;DHT22;25336;59.944;11.010;2024-01-16T07:15:10;-16.70;59.10
39655;DHT22;25336;59.944;11.010;2024-01-16T07:17:36;-16.80;59.00
39655;DHT22;25336;59.944;11.010;2024-01-16T07:20:02;-16.70;58.90
39655;DHT22;25336;59.944;11.010;2024-01-16T07:22:28;-16.80;58.70
39655;DHT22;25336;59.944;11.010;2024-01-16T07:24:54;-16.80;58.60
39655;DHT22;25336;59.944;11.010;2024-01-16T07:27:19;-16.80;58.60
39655;DHT22;25336;59.944;11.010;2024-01-16T07:29:45;-16.80;58.50
39655;DHT22;25336;59.944;11.010;2024-01-16T07:32:11;-16.80;58.50
39655;DHT22;25336;59.944;11.010;2024-01-16T07:34:37;-16.80;58.60
39655;DHT22;25336;59.944;11.010;2024-01-16T07:37:03;-16.80;58.60
39655;DHT22;25336;59.944;11.010;2024-01-16T07:39:28;-16.70;58.70
39655;DHT22;25336;59.944;11.010;2024-01-16T07:41:54;-16.70;58.90
39655;DHT22;25336;59.944;11.010;2024-01-16T07:44:20;-16.20;59.20
39655;DHT22;25336;59.944;11.010;2024-01-16T07:46:45;-16.60;59.10
39655;DHT22;25336;59.944;11.010;2024-01-16T07:49:11;-16.50;59.30
39655;DHT22;25336;59.944;11.010;2024-01-16T07:51:37;-16.50;59.40
39655;DHT22;25336;59.944;11.010;2024-01-16T07:54:07;-16.40;59.60
39655;DHT22;25336;59.944;11.010;2024-01-16T07:56:34;-15.60;60.00
39655;DHT22;25336;59.944;11.010;2024-01-16T07:58:59;-16.30;59.70
39655;DHT22;25336;59.944;11.010;2024-01-16T08:01:29;-16.20;59.80
39655;DHT22;25336;59.944;11.010;2024-01-16T08:03:56;-16.10;59.90
39655;DHT22;25336;59.944;11.010;2024-01-16T08:06:22;-17.10;59.50
39655;DHT22;25336;59.944;11.010;2024-01-16T08:08:48;-16.00;60.00
39655;DHT22;25336;59.944;11.010;2024-01-16T08:11:15;-16.00;60.00
39655;DHT22;25336;59.944;11.010;2024-01-16T08:13:40;-15.00;60.70
39655;DHT22;25336;59.944;11.010;2024-01-16T08:16:07;-15.90;60.00
39655;DHT22;25336;59.944;11.010;2024-01-16T08:18:33;-15.90;59.90
39655;DHT22;25336;59.944;11.010;2024-01-16T08:20:59;-15.90;59.70
39655;DHT22;25336;59.944;11.010;2024-01-16T08:23:25;-15.90;59.60
39655;DHT22;25336;59.944;11.010;2024-01-16T08:25:51;-15.90;59.40
39655;DHT22;25336;59.944;11.010;2024-01-16T08:28:20;-15.90;59.30
39655;DHT22;25336;59.944;11.010;2024-01-16T08:30:47;-16.00;59.10
39655;DHT22;25336;59.944;11.010;2024-01-16T08:33:12;-16.00;59.00
39655;DHT22;25336;59.944;11.010;2024-01-16T08:35:38;-16.00;58.90
39655;DHT22;25336;59.944;11.010;2024-01-16T08:38:04;-16.00;58.90
39655;DHT22;25336;59.944;11.010;2024-01-16T08:40:30;-16.00;58.90
39655;DHT22;25336;59.944;11.010;2024-01-16T08:42:56;-16.00;59.00
39655;DHT22;25336;59.944;11.010;2024-01-16T08:45:22;-15.90;59.10
39655;DHT22;25336;59.944;11.010;2024-01-16T08:47:48;-14.80;59.70
39655;DHT22;25336;59.944;11.010;2024-01-16T08:50:15;-15.90;59.30
39655;DHT22;25336;59.944;11.010;2024-01-16T08:52:41;-15.80;59.30
39655;DHT22;25336;59.944;11.010;2024-01-16T08:55:08;-16.00;59.30
39655;DHT22;25336;59.944;11.010;2024-01-16T08:57:34;-15.80;59.30
39655;DHT22;25336;59.944;11.010;2024-01-16T09:00:00;-15.80;59.30
39655;DHT22;25336;59.944;11.010;2024-01-16T09:02:26;-15.80;59.30
39655;DHT22;25336;59.944;11.010;2024-01-16T09:04:55;-15.80;59.30
39655;DHT22;25336;59.944;11.010;2024-01-16T09:07:20;-15.90;59.20
39655;DHT22;25336;59.944;11.010;2024-01-16T09:09:46;-15.40;59.30
39655;DHT22;25336;59.944;11.010;2024-01-16T09:12:12;-15.90;59.00
39655;DHT22;25336;59.944;11.010;2024-01-16T09:14:38;-15.90;59.00
39655;DHT22;25336;59.944;11.010;2024-01-16T09:17:03;-16.00;58.90
39655;DHT22;25336;59.944;11.010;2024-01-16T09:19:30;-16.00;59.00
39655;DHT22;25336;59.944;11.010;2024-01-16T09:21:56;-16.00;59.00
39655;DHT22;25336;59.944;11.010;2024-01-16T09:24:21;-16.00;59.00
39655;DHT22;25336;59.944;11.010;2024-01-16T09:26:47;-16.00;59.10
39655;DHT22;25336;59.944;11.010;2024-01-16T09:29:13;-16.00;59.10
39655;DHT22;25336;59.944;11.010;2024-01-16T09:31:40;-17.00;58.70
39655;DHT22;25336;59.944;11.010;2024-01-16T09:34:06;-16.00;59.20
39655;DHT22;25336;59.944;11.010;2024-01-16T09:36:32;-15.90;59.70
39655;DHT22;25336;59.944;11.010;2024-01-16T09:39:02;-15.90;59.30
39655;DHT22;25336;59.944;11.010;2024-01-16T09:41:28;-15.90;59.40
39655;DHT22;25336;59.944;11.010;2024-01-16T09:43:54;-15.90;59.30
39655;DHT22;25336;59.944;11.010;2024-01-16T09:46:23;-15.90;59.30
39655;DHT22;25336;59.944;11.010;2024-01-16T09:48:52;-15.90;59.40
39655;DHT22;25336;59.944;11.010;2024-01-16T09:51:19;-15.90;59.40
39655;DHT22;25336;59.944;11.010;2024-01-16T09:53:45;-15.90;59.50
39655;DHT22;25336;59.944;11.010;2024-01-16T09:56:15;-15.90;59.60
39655;DHT22;25336;59.944;11.010;2024-01-16T09:58:43;-15.90;59.70
39655;DHT22;25336;59.944;11.010;2024-01-16T10:01:11;-15.80;59.90
39655;DHT22;25336;59.944;11.010;2024-01-16T10:03:38;-15.80;60.00
39655;DHT22;25336;59.944;11.010;2024-01-16T10:06:07;-15.80;60.80
39655;DHT22;25336;59.944;11.010;2024-01-16T10:08:33;-15.70;60.10
39655;DHT22;25336;59.944;11.010;2024-01-16T10:10:59;-15.70;60.20
39655;DHT22;25336;59.944;11.010;2024-01-16T10:13:26;-15.70;60.20
39655;DHT22;25336;59.944;11.010;2024-01-16T10:15:52;-15.60;60.30
39655;DHT22;25336;59.944;11.010;2024-01-16T10:18:28;-15.60;60.30
39655;DHT22;25336;59.944;11.010;2024-01-16T10:20:57;-15.50;60.40
39655;DHT22;25336;59.944;11.010;2024-01-16T10:26:12;-15.40;60.50
39655;DHT22;25336;59.944;11.010;2024-01-16T10:28:39;-15.40;60.50
39655;DHT22;25336;59.944;11.010;2024-01-16T10:31:11;-15.30;60.40
39655;DHT22;25336;59.944;11.010;2024-01-16T10:33:39;-15.30;60.50
39655;DHT22;25336;59.944;11.010;2024-01-16T10:38:37;-15.20;60.40
39655;DHT22;25336;59.944;11.010;2024-01-16T10:41:09;-15.20;60.50
39655;DHT22;25336;59.944;11.010;2024-01-16T10:43:36;-15.20;60.50
39655;DHT22;25336;59.944;11.010;2024-01-16T10:48:35;-15.10;60.50
39655;DHT22;25336;59.944;11.010;2024-01-16T10:51:02;-15.10;60.50
39655;DHT22;25336;59.944;11.010;2024-01-16T10:53:32;-15.10;60.60
39655;DHT22;25336;59.944;11.010;2024-01-16T10:56:00;-15.10;60.60
39655;DHT22;25336;59.944;11.010;2024-01-16T10:58:26;-15.00;60.70
39655;DHT22;25336;59.944;11.010;2024-01-16T11:00:57;-15.00;60.70
39655;DHT22;25336;59.944;11.010;2024-01-16T11:05:57;-14.90;60.80
39655;DHT22;25336;59.944;11.010;2024-01-16T11:08:24;-14.90;60.80
39655;DHT22;25336;59.944;11.010;2024-01-16T11:10:57;-14.80;60.90
39655;DHT22;25336;59.944;11.010;2024-01-16T11:13:23;-14.80;60.90
39655;DHT22;25336;59.944;11.010;2024-01-16T11:15:50;-14.70;61.00
39655;DHT22;25336;59.944;11.010;2024-01-16T11:18:16;-14.30;61.30
39655;DHT22;25336;59.944;11.010;2024-01-16T11:20:43;-14.60;61.20
39655;DHT22;25336;59.944;11.010;2024-01-16T11:23:11;-14.60;61.10
39655;DHT22;25336;59.944;11.010;2024-01-16T11:25:37;-14.60;61.10
39655;DHT22;25336;59.944;11.010;2024-01-16T11:28:13;-14.60;61.10
39655;DHT22;25336;59.944;11.010;2024-01-16T11:30:40;-13.90;61.40
39655;DHT22;25336;59.944;11.010;2024-01-16T11:33:06;-14.50;61.00
39655;DHT22;25336;59.944;11.010;2024-01-16T11:35:52;-14.40;61.30
39655;DHT22;25336;59.944;11.010;2024-01-16T11:38:18;-14.40;61.20
39655;DHT22;25336;59.944;11.010;2024-01-16T11:40:45;-14.40;61.10
39655;DHT22;25336;59.944;11.010;2024-01-16T11:46:06;-14.40;61.10
39655;DHT22;25336;59.944;11.010;2024-01-16T11:48:35;-14.40;61.20
39655;DHT22;25336;59.944;11.010;2024-01-16T11:51:24;-14.30;61.30
39655;DHT22;25336;59.944;11.010;2024-01-16T11:53:50;-14.30;61.40
39655;DHT22;25336;59.944;11.010;2024-01-16T12:01:38;-14.20;61.50
39655;DHT22;25336;59.944;11.010;2024-01-16T12:04:07;-14.20;61.60
39655;DHT22;25336;59.944;11.010;2024-01-16T12:06:35;-14.10;61.80
39655;DHT22;25336;59.944;11.010;2024-01-16T12:09:12;-14.10;61.80
39655;DHT22;25336;59.944;11.010;2024-01-16T12:11:39;-13.80;62.00
39655;DHT22;25336;59.944;11.010;2024-01-16T12:14:05;-14.10;61.80
39655;DHT22;25336;59.944;11.010;2024-01-16T12:16:31;-14.10;61.90
39655;DHT22;25336;59.944;11.010;2024-01-16T12:19:09;-14.10;61.80
39655;DHT22;25336;59.944;11.010;2024-01-16T12:21:43;-14.00;62.00
39655;DHT22;25336;59.944;11.010;2024-01-16T12:24:12;-14.00;62.10
39655;DHT22;25336;59.944;11.010;2024-01-16T12:26:38;-13.90;62.20
39655;DHT22;25336;59.944;11.010;2024-01-16T12:29:07;-13.90;62.20
39655;DHT22;25336;59.944;11.010;2024-01-16T12:31:33;-13.90;62.20
39655;DHT22;25336;59.944;11.010;2024-01-16T12:34:07;-13.80;62.30
39655;DHT22;25336;59.944;11.010;2024-01-16T12:36:34;-13.80;62.20
39655;DHT22;25336;59.944;11.010;2024-01-16T12:39:00;-12.80;62.80
39655;DHT22;25336;59.944;11.010;2024-01-16T12:41:32;-13.70;62.10
39655;DHT22;25336;59.944;11.010;2024-01-16T12:43:58;-13.70;62.00
39655;DHT22;25336;59.944;11.010;2024-01-16T12:46:25;-13.70;62.00
39655;DHT22;25336;59.944;11.010;2024-01-16T12:48:51;-13.70;62.00
39655;DHT22;25336;59.944;11.010;2024-01-16T12:51:22;-13.60;62.10
39655;DHT22;25336;59.944;11.010;2024-01-16T12:53:51;-13.60;62.20
39655;DHT22;25336;59.944;11.010;2024-01-16T12:56:20;-13.60;62.20
39655;DHT22;25336;59.944;11.010;2024-01-16T12:58:46;-13.50;62.30
39655;DHT22;25336;59.944;11.010;2024-01-16T13:01:26;-13.50;62.30
39655;DHT22;25336;59.944;11.010;2024-01-16T13:03:52;-13.40;62.50
39655;DHT22;25336;59.944;11.010;2024-01-16T13:06:22;-13.40;62.50
39655;DHT22;25336;59.944;11.010;2024-01-16T13:08:49;-13.30;62.50
39655;DHT22;25336;59.944;11.010;2024-01-16T13:11:15;-13.30;62.40
39655;DHT22;25336;59.944;11.010;2024-01-16T13:13:46;-13.20;62.60
39655;DHT22;25336;59.944;11.010;2024-01-16T13:16:13;-13.20;62.50
39655;DHT22;25336;59.944;11.010;2024-01-16T13:18:39;-13.10;62.50
39655;DHT22;25336;59.944;11.010;2024-01-16T13:21:05;-13.10;62.40
39655;DHT22;25336;59.944;11.010;2024-01-16T13:23:31;-13.00;62.50
39655;DHT22;25336;59.944;11.010;2024-01-16T13:25:57;-13.00;62.50
39655;DHT22;25336;59.944;11.010;2024-01-16T13:28:26;-12.90;62.70
39655;DHT22;25336;59.944;11.010;2024-01-16T13:30:52;-12.90;62.70
39655;DHT22;25336;59.944;11.010;2024-01-16T13:33:18;-12.90;62.50
39655;DHT22;25336;59.944;11.010;2024-01-16T13:35:45;-11.60;63.30
39655;DHT22;25336;59.944;11.010;2024-01-16T13:38:15;-12.80;62.60
39655;DHT22;25336;59.944;11.010;2024-01-16T13:40:44;-12.80;62.50
39655;DHT22;25336;59.944;11.010;2024-01-16T13:43:10;-12.80;62.40
39655;DHT22;25336;59.944;11.010;2024-01-16T13:45:37;-12.80;62.40
39655;DHT22;25336;59.944;11.010;2024-01-16T13:48:04;-12.70;62.50
39655;DHT22;25336;59.944;11.010;2024-01-16T13:50:32;-12.70;62.40
39655;DHT22;25336;59.944;11.010;2024-01-16T13:53:01;-12.70;62.30
39655;DHT22;25336;59.944;11.010;2024-01-16T13:55:28;-12.70;62.30
39655;DHT22;25336;59.944;11.010;2024-01-16T13:57:54;-12.70;62.20
39655;DHT22;25336;59.944;11.010;2024-01-16T14:00:19;-12.70;62.30
39655;DHT22;25336;59.944;11.010;2024-01-16T14:02:46;-12.60;62.40
39655;DHT22;25336;59.944;11.010;2024-01-16T14:05:17;-12.60;62.50
39655;DHT22;25336;59.944;11.010;2024-01-16T14:07:47;-12.00;63.00
39655;DHT22;25336;59.944;11.010;2024-01-16T14:10:17;-12.60;62.60
39655;DHT22;25336;59.944;11.010;2024-01-16T14:12:43;-12.50;62.60
39655;DHT22;25336;59.944;11.010;2024-01-16T14:15:14;-12.50;62.50
39655;DHT22;25336;59.944;11.010;2024-01-16T14:17:48;-12.50;62.50
39655;DHT22;25336;59.944;11.010;2024-01-16T14:20:15;-12.60;62.30
39655;DHT22;25336;59.944;11.010;2024-01-16T14:22:42;-12.60;62.20
39655;DHT22;25336;59.944;11.010;2024-01-16T14:25:12;-12.60;62.20
39655;DHT22;25336;59.944;11.010;2024-01-16T14:27:42;-12.60;62.20
39655;DHT22;25336;59.944;11.010;2024-01-16T14:30:13;-12.60;62.30
39655;DHT22;25336;59.944;11.010;2024-01-16T14:32:45;-12.60;62.40
39655;DHT22;25336;59.944;11.010;2024-01-16T14:35:12;-12.60;62.40
39655;DHT22;25336;59.944;11.010;2024-01-16T14:37:39;-12.60;62.60
39655;DHT22;25336;59.944;11.010;2024-01-16T14:40:06;-12.60;62.60
39655;DHT22;25336;59.944;11.010;2024-01-16T14:42:44;-12.60;62.60
39655;DHT22;25336;59.944;11.010;2024-01-16T14:45:10;-12.60;62.60
39655;DHT22;25336;59.944;11.010;2024-01-16T14:47:37;-12.60;62.60
39655;DHT22;25336;59.944;11.010;2024-01-16T14:50:04;-12.30;62.90
39655;DHT22;25336;59.944;11.010;2024-01-16T14:52:30;-12.60;62.70
39655;DHT22;25336;59.944;11.010;2024-01-16T14:55:02;-12.60;62.70
39655;DHT22;25336;59.944;11.010;2024-01-16T14:57:33;-12.60;62.80
39655;DHT22;25336;59.944;11.010;2024-01-16T15:00:11;-12.60;62.80
39655;DHT22;25336;59.944;11.010;2024-01-16T15:02:52;-12.50;63.00
39655;DHT22;25336;59.944;11.010;2024-01-16T15:05:19;-11.30;63.80
39655;DHT22;25336;59.944;11.010;2024-01-16T15:07:45;-12.50;63.10
39655;DHT22;25336;59.944;11.010;2024-01-16T15:10:11;-12.50;63.30
39655;DHT22;25336;59.944;11.010;2024-01-16T15:12:38;-12.40;63.40
39655;DHT22;25336;59.944;11.010;2024-01-16T15:15:10;-12.40;63.50
39655;DHT22;25336;59.944;11.010;2024-01-16T15:17:37;-12.30;63.60
39655;DHT22;25336;59.944;11.010;2024-01-16T15:20:03;-12.20;63.70
39655;DHT22;25336;59.944;11.010;2024-01-16T15:22:30;-12.20;63.70